Time;durP1;ratioP1;P1;durP2;ratioP2;P2;SDS_P1;SDS_P2;PMS_P1;PMS_P2;Temp;Humidity;BMP_temperature;BMP_pressure;BME280_temperature;BME280_humidity;BME280_pressure;Samples;Min_cycle;Max_cycle;Signal;HPM_P1;HPM_P2
2023/09/28 00:03:38;;;;;;;44.80;22.40;;;;;;;;;;6274739;28;20404;-68
2023/09/28 00:06:39;;;;;;;44.42;22.35;;;;;;;;;;6286577;28;20086;-68
2023/09/28 00:09:40;;;;;;;41.67;21.90;;;;;;;;;;6286238;28;20490;-67
2023/09/28 00:12:43;;;;;;;36.85;20.85;;;;;;;;;;6288087;28;20059;-67
2023/09/28 00:15:46;;;;;;;41.05;21.63;;;;;;;;;;6286558;28;20396;-68
2023/09/28 00:18:47;;;;;;;38.10;20.60;;;;;;;;;;6286641;28;20044;-66
2023/09/28 00:21:48;;;;;;;37.78;20.95;;;;;;;;;;6287733;28;20671;-66
2023/09/28 00:24:49;;;;;;;39.20;20.88;;;;;;;;;;6287115;28;20495;-66
2023/09/28 00:27:52;;;;;;;34.50;19.88;;;;;;;;;;6281523;28;20045;-67
2023/09/28 00:30:53;;;;;;;35.25;19.88;;;;;;;;;;6287035;28;20066;-68
2023/09/28 00:33:53;;;;;;;34.58;20.48;;;;;;;;;;6287493;28;20145;-67
2023/09/28 00:36:54;;;;;;;38.38;20.77;;;;;;;;;;6286379;28;20044;-67
2023/09/28 00:39:55;;;;;;;36.60;20.13;;;;;;;;;;6287430;28;20068;-66
2023/09/28 00:42:56;;;;;;;30.42;18.17;;;;;;;;;;6286558;28;20037;-66
2023/09/28 00:45:59;;;;;;;30.83;17.57;;;;;;;;;;6269277;28;20044;-66
2023/09/28 00:49:05;;;;;;;38.92;19.77;;;;;;;;;;6285918;28;20526;-68
2023/09/28 00:52:07;;;;;;;31.15;18.20;;;;;;;;;;6279411;28;20525;-67
2023/09/28 00:55:09;;;;;;;35.53;19.30;;;;;;;;;;6270713;28;20048;-66
2023/09/28 00:58:09;;;;;;;32.42;20.02;;;;;;;;;;6286618;28;20410;-67
2023/09/28 01:01:10;;;;;;;34.85;18.88;;;;;;;;;;6286897;28;20049;-66
2023/09/28 01:04:11;;;;;;;35.30;19.10;;;;;;;;;;6287317;28;20101;-64
2023/09/28 01:07:12;;;;;;;34.90;18.83;;;;;;;;;;6283608;28;20068;-67
2023/09/28 01:10:14;;;;;;;31.42;18.35;;;;;;;;;;6285199;28;20037;-67
2023/09/28 01:13:20;;;;;;;35.78;19.05;;;;;;;;;;6286180;28;20052;-67
2023/09/28 01:16:21;;;;;;;38.10;18.80;;;;;;;;;;6286626;28;20435;-67
2023/09/28 01:19:24;;;;;;;29.52;17.65;;;;;;;;;;6285355;28;20048;-68
2023/09/28 01:22:25;;;;;;;27.30;17.13;;;;;;;;;;6287124;28;20041;-68
2023/09/28 01:25:26;;;;;;;33.38;17.58;;;;;;;;;;6285554;28;20043;-68
2023/09/28 01:28:27;;;;;;;31.10;17.63;;;;;;;;;;6285014;28;20412;-68
2023/09/28 01:31:27;;;;;;;29.88;17.38;;;;;;;;;;6285365;28;20060;-68
2023/09/28 01:34:28;;;;;;;30.13;17.05;;;;;;;;;;6288569;28;20083;-67
2023/09/28 01:37:39;;;;;;;27.48;16.50;;;;;;;;;;6285327;28;20053;-66
2023/09/28 01:40:41;;;;;;;23.92;15.65;;;;;;;;;;6285350;28;20044;-68
2023/09/28 01:43:41;;;;;;;23.95;15.15;;;;;;;;;;6289714;28;20055;-68
2023/09/28 01:46:42;;;;;;;28.98;15.55;;;;;;;;;;6291091;28;20040;-67
2023/09/28 01:49:42;;;;;;;23.65;15.57;;;;;;;;;;6289150;28;20055;-67
2023/09/28 01:52:43;;;;;;;23.15;15.38;;;;;;;;;;6290542;28;20152;-66
2023/09/28 01:55:44;;;;;;;27.73;16.02;;;;;;;;;;6290682;28;20511;-68
2023/09/28 01:58:44;;;;;;;27.05;16.15;;;;;;;;;;6290399;28;20807;-67
2023/09/28 02:01:45;;;;;;;30.30;16.67;;;;;;;;;;6287769;28;20354;-67
2023/09/28 02:04:46;;;;;;;27.23;15.13;;;;;;;;;;6290820;28;20040;-65
2023/09/28 02:07:46;;;;;;;24.13;14.98;;;;;;;;;;6289951;28;20082;-67
2023/09/28 02:10:47;;;;;;;27.42;15.70;;;;;;;;;;6300158;28;20068;-67
2023/09/28 02:13:47;;;;;;;31.80;18.35;;;;;;;;;;6290404;28;20040;-68
2023/09/28 02:16:50;;;;;;;30.05;18.17;;;;;;;;;;6290394;28;20478;-68
2023/09/28 02:19:50;;;;;;;32.55;18.02;;;;;;;;;;6289670;28;20488;-66
2023/09/28 02:22:54;;;;;;;35.22;18.90;;;;;;;;;;6290354;28;20063;-63
2023/09/28 02:25:54;;;;;;;36.38;19.88;;;;;;;;;;6290058;28;20506;-69
2023/09/28 02:28:57;;;;;;;39.30;20.13;;;;;;;;;;6288620;28;20127;-66
2023/09/28 02:31:57;;;;;;;36.67;18.88;;;;;;;;;;6288139;28;20517;-66
2023/09/28 02:34:58;;;;;;;36.28;19.80;;;;;;;;;;6290374;28;20055;-66
2023/09/28 02:37:59;;;;;;;34.10;19.00;;;;;;;;;;6290432;28;20090;-67
2023/09/28 02:41:00;;;;;;;33.88;19.45;;;;;;;;;;6288063;28;20586;-67
2023/09/28 02:44:00;;;;;;;41.72;21.38;;;;;;;;;;6271635;28;20045;-67
2023/09/28 02:47:09;;;;;;;49.35;22.20;;;;;;;;;;6287515;28;20040;-68
2023/09/28 02:50:11;;;;;;;42.58;22.67;;;;;;;;;;6288386;28;20098;-67
2023/09/28 02:53:12;;;;;;;56.72;25.92;;;;;;;;;;6285653;28;20059;-67
2023/09/28 02:56:15;;;;;;;116.88;28.73;;;;;;;;;;6289525;28;20036;-68
2023/09/28 02:59:21;;;;;;;340.15;34.22;;;;;;;;;;6288687;28;20171;-63
2023/09/28 03:02:22;;;;;;;56.15;25.08;;;;;;;;;;6275238;28;20044;-68
2023/09/28 03:05:24;;;;;;;47.97;24.45;;;;;;;;;;6288468;28;20389;-67
2023/09/28 03:08:25;;;;;;;51.92;25.83;;;;;;;;;;6289365;28;20043;-69
2023/09/28 03:11:25;;;;;;;49.67;26.23;;;;;;;;;;6289217;28;20055;-67
2023/09/28 03:14:26;;;;;;;105.95;28.77;;;;;;;;;;6289515;28;20415;-67
2023/09/28 03:17:28;;;;;;;53.35;26.83;;;;;;;;;;6288833;28;20048;-67
2023/09/28 03:20:31;;;;;;;50.70;25.88;;;;;;;;;;6288337;28;20137;-68
2023/09/28 03:23:32;;;;;;;47.70;25.00;;;;;;;;;;6271001;28;20111;-65
2023/09/28 03:26:33;;;;;;;42.75;23.60;;;;;;;;;;6286899;28;20040;-68
2023/09/28 03:29:34;;;;;;;50.05;26.17;;;;;;;;;;6286038;28;20058;-69
2023/09/28 03:32:35;;;;;;;91.55;27.48;;;;;;;;;;6286064;28;20048;-66
2023/09/28 03:35:36;;;;;;;75.90;28.83;;;;;;;;;;6287965;28;20045;-68
2023/09/28 03:38:36;;;;;;;59.45;26.73;;;;;;;;;;6288052;28;20041;-68
2023/09/28 03:41:37;;;;;;;50.47;25.83;;;;;;;;;;6288415;28;20401;-66
2023/09/28 03:44:38;;;;;;;50.28;24.40;;;;;;;;;;6289351;28;20438;-65
2023/09/28 03:47:40;;;;;;;56.40;25.35;;;;;;;;;;6289312;28;20064;-69
2023/09/28 03:50:40;;;;;;;65.78;25.92;;;;;;;;;;6286379;28;20055;-68
2023/09/28 03:53:41;;;;;;;66.95;26.17;;;;;;;;;;6286706;28;20495;-66
2023/09/28 03:56:42;;;;;;;57.63;25.83;;;;;;;;;;6287904;28;20040;-69
2023/09/28 03:59:42;;;;;;;157.15;30.52;;;;;;;;;;6286689;28;20075;-67
2023/09/28 04:02:48;;;;;;;129.23;29.45;;;;;;;;;;6287617;28;20028;-68
2023/09/28 04:05:49;;;;;;;134.05;30.98;;;;;;;;;;6288323;28;20044;-68
2023/09/28 04:08:50;;;;;;;146.25;31.58;;;;;;;;;;6269458;28;20041;-66
2023/09/28 04:11:50;;;;;;;127.57;32.05;;;;;;;;;;6287278;28;20041;-69
2023/09/28 04:14:51;;;;;;;138.13;32.63;;;;;;;;;;6288117;28;20052;-67
2023/09/28 04:17:52;;;;;;;133.88;31.02;;;;;;;;;;6285484;28;20051;-67
2023/09/28 04:20:52;;;;;;;73.05;30.02;;;;;;;;;;6288680;28;20049;-69
2023/09/28 04:23:54;;;;;;;58.13;27.70;;;;;;;;;;6285807;28;20045;-66
2023/09/28 04:26:58;;;;;;;77.30;30.13;;;;;;;;;;6286946;28;20415;-68
2023/09/28 04:29:58;;;;;;;76.50;28.40;;;;;;;;;;6286026;28;20342;-68
2023/09/28 04:32:59;;;;;;;51.95;27.65;;;;;;;;;;6269534;28;20044;-68
2023/09/28 04:36:00;;;;;;;51.92;26.55;;;;;;;;;;6287489;28;20230;-68
2023/09/28 04:39:01;;;;;;;50.88;26.98;;;;;;;;;;6285947;28;20056;-68
2023/09/28 04:42:01;;;;;;;46.97;25.08;;;;;;;;;;6288706;28;20129;-68
2023/09/28 04:45:03;;;;;;;53.47;26.55;;;;;;;;;;6286188;28;20052;-66
2023/09/28 04:48:04;;;;;;;43.28;23.98;;;;;;;;;;6268146;28;20053;-68
2023/09/28 04:51:05;;;;;;;47.20;25.63;;;;;;;;;;6255119;28;20518;-68
2023/09/28 04:54:06;;;;;;;79.25;26.40;;;;;;;;;;6286194;28;20131;-65
2023/09/28 04:57:06;;;;;;;53.88;25.20;;;;;;;;;;6285678;28;20492;-68
2023/09/28 05:00:15;;;;;;;53.22;25.23;;;;;;;;;;6284404;28;20486;-69
2023/09/28 05:03:15;;;;;;;50.28;24.55;;;;;;;;;;6285977;28;20518;-69
2023/09/28 05:06:16;;;;;;;43.83;23.35;;;;;;;;;;6286236;28;20124;-67
2023/09/28 05:09:18;;;;;;;53.80;24.02;;;;;;;;;;6284058;28;20040;-68
2023/09/28 05:12:19;;;;;;;48.50;24.73;;;;;;;;;;6280887;28;20067;-68
2023/09/28 05:15:20;;;;;;;76.03;26.25;;;;;;;;;;6284129;28;20046;-67
2023/09/28 05:18:20;;;;;;;66.90;25.00;;;;;;;;;;6290131;28;20056;-67
2023/09/28 05:21:21;;;;;;;70.40;24.38;;;;;;;;;;6292179;28;20098;-68
2023/09/28 05:24:22;;;;;;;51.65;23.90;;;;;;;;;;6287527;28;20083;-68
2023/09/28 05:27:22;;;;;;;90.25;23.40;;;;;;;;;;6288053;28;20063;-68
2023/09/28 05:30:23;;;;;;;75.65;24.58;;;;;;;;;;6288666;28;20036;-66
2023/09/28 05:33:23;;;;;;;43.78;22.30;;;;;;;;;;6289607;28;20558;-66
2023/09/28 05:36:24;;;;;;;45.78;24.08;;;;;;;;;;6289557;28;20052;-68
2023/09/28 05:39:25;;;;;;;47.30;24.48;;;;;;;;;;6286644;28;20041;-68
2023/09/28 05:42:26;;;;;;;44.95;24.55;;;;;;;;;;6286777;28;20483;-67
2023/09/28 05:45:26;;;;;;;43.80;24.35;;;;;;;;;;6287473;28;20044;-67
2023/09/28 05:48:27;;;;;;;44.03;23.65;;;;;;;;;;6286293;28;20048;-67
2023/09/28 05:51:28;;;;;;;49.90;25.92;;;;;;;;;;6286237;28;20053;-67
2023/09/28 05:54:28;;;;;;;46.78;23.98;;;;;;;;;;6287596;28;20064;-66
2023/09/28 05:57:29;;;;;;;52.85;27.23;;;;;;;;;;6290359;28;20082;-67
2023/09/28 06:00:30;;;;;;;46.72;25.42;;;;;;;;;;6285235;28;20037;-68
2023/09/28 06:03:31;;;;;;;43.13;22.30;;;;;;;;;;6289009;28;20053;-68
2023/09/28 06:06:32;;;;;;;46.45;24.35;;;;;;;;;;6289090;28;20456;-68
2023/09/28 06:09:32;;;;;;;53.70;27.45;;;;;;;;;;6288507;28;20039;-68
2023/09/28 06:12:33;;;;;;;60.53;27.73;;;;;;;;;;6288214;28;20045;-67
2023/09/28 06:15:34;;;;;;;50.60;24.70;;;;;;;;;;6288561;28;20312;-67
2023/09/28 06:18:35;;;;;;;47.10;25.40;;;;;;;;;;6287966;28;20191;-66
2023/09/28 06:21:38;;;;;;;53.13;27.98;;;;;;;;;;6291170;28;20135;-67
2023/09/28 06:24:39;;;;;;;48.90;27.00;;;;;;;;;;6288792;28;20049;-68
2023/09/28 06:27:39;;;;;;;49.00;26.95;;;;;;;;;;6287813;28;20518;-67
2023/09/28 06:30:40;;;;;;;54.53;28.38;;;;;;;;;;6286546;28;20044;-68
2023/09/28 06:33:42;;;;;;;57.22;29.00;;;;;;;;;;6288715;28;20048;-66
2023/09/28 06:36:43;;;;;;;48.28;27.75;;;;;;;;;;6290850;28;20577;-68
2023/09/28 06:39:43;;;;;;;59.53;28.35;;;;;;;;;;6288827;28;20053;-68
2023/09/28 06:42:44;;;;;;;53.97;30.02;;;;;;;;;;6288068;28;20350;-67
2023/09/28 06:45:45;;;;;;;56.95;28.70;;;;;;;;;;6290596;28;20526;-68
2023/09/28 06:48:46;;;;;;;54.47;27.83;;;;;;;;;;6287637;28;20044;-68
2023/09/28 06:51:48;;;;;;;49.47;26.13;;;;;;;;;;6287135;28;20060;-67
2023/09/28 06:54:49;;;;;;;50.78;25.95;;;;;;;;;;6289271;28;20078;-67
2023/09/28 06:57:50;;;;;;;46.58;25.40;;;;;;;;;;6289267;28;20037;-67
2023/09/28 07:00:52;;;;;;;49.58;25.63;;;;;;;;;;6288778;28;20082;-65
2023/09/28 07:03:53;;;;;;;47.25;24.30;;;;;;;;;;6289145;28;20048;-66
2023/09/28 07:06:53;;;;;;;43.38;23.13;;;;;;;;;;6289843;28;20510;-67
2023/09/28 07:09:55;;;;;;;46.17;23.15;;;;;;;;;;6276853;28;20053;-67
2023/09/28 07:12:56;;;;;;;42.58;24.50;;;;;;;;;;6289973;28;20048;-67
2023/09/28 07:15:57;;;;;;;41.83;21.42;;;;;;;;;;6289381;28;20039;-66
2023/09/28 07:18:57;;;;;;;38.75;22.50;;;;;;;;;;6287827;28;20107;-67
2023/09/28 07:21:58;;;;;;;37.33;21.73;;;;;;;;;;6288680;28;20063;-67
2023/09/28 07:24:59;;;;;;;37.90;21.90;;;;;;;;;;6287860;28;20040;-68
2023/09/28 07:27:59;;;;;;;40.25;21.63;;;;;;;;;;6288809;28;20032;-67
2023/09/28 07:31:00;;;;;;;39.60;21.63;;;;;;;;;;6286036;28;20139;-68
2023/09/28 07:34:01;;;;;;;42.03;20.85;;;;;;;;;;6288050;28;20052;-66
2023/09/28 07:37:02;;;;;;;36.80;19.73;;;;;;;;;;6288795;28;20056;-68
2023/09/28 07:40:04;;;;;;;39.00;21.13;;;;;;;;;;6287217;28;20052;-66
2023/09/28 07:43:05;;;;;;;35.38;19.38;;;;;;;;;;6288333;28;20041;-67
2023/09/28 07:46:06;;;;;;;39.58;19.33;;;;;;;;;;6288911;28;20467;-65
2023/09/28 07:49:07;;;;;;;32.28;18.13;;;;;;;;;;6287917;28;20290;-67
2023/09/28 07:52:08;;;;;;;34.85;17.88;;;;;;;;;;6285463;28;20051;-67
2023/09/28 07:55:09;;;;;;;;;;;;;;;;;;6290668;28;20051;-68
2023/09/28 07:58:10;;;;;;;36.75;17.50;;;;;;;;;;6287781;28;19925;-67
2023/09/28 08:01:12;;;;;;;33.07;17.70;;;;;;;;;;6287905;28;20048;-67
2023/09/28 08:04:12;;;;;;;34.08;18.80;;;;;;;;;;6272312;28;20123;-67
2023/09/28 08:07:15;;;;;;;31.48;16.25;;;;;;;;;;6286778;28;20068;-65
2023/09/28 08:10:15;;;;;;;28.60;15.63;;;;;;;;;;6284261;28;20053;-67
2023/09/28 08:13:16;;;;;;;26.57;15.63;;;;;;;;;;6288659;28;20075;-68
2023/09/28 08:16:16;;;;;;;35.40;16.70;;;;;;;;;;6287855;28;20079;-68
2023/09/28 08:19:19;;;;;;;26.83;14.73;;;;;;;;;;6285685;28;20037;-67
2023/09/28 08:22:20;;;;;;;28.88;15.60;;;;;;;;;;6288622;28;20044;-65
2023/09/28 08:25:21;;;;;;;31.80;16.10;;;;;;;;;;6288248;28;20045;-68
2023/09/28 08:28:22;;;;;;;32.33;15.87;;;;;;;;;;6286641;28;20045;-67
2023/09/28 08:31:23;;;;;;;26.45;15.27;;;;;;;;;;6283877;28;20071;-67
2023/09/28 08:34:24;;;;;;;33.83;15.03;;;;;;;;;;6287729;28;20400;-67
2023/09/28 08:37:24;;;;;;;21.53;13.30;;;;;;;;;;6286747;28;20056;-67
2023/09/28 08:40:25;;;;;;;25.83;12.80;;;;;;;;;;6286504;28;20052;-66
2023/09/28 08:43:30;;;;;;;24.13;14.20;;;;;;;;;;6287531;28;20744;-67
2023/09/28 08:46:37;;;;;;;26.33;12.90;;;;;;;;;;6286201;28;20036;-68
2023/09/28 08:49:39;;;;;;;27.23;14.05;;;;;;;;;;6288852;28;20076;-68
2023/09/28 08:52:40;;;;;;;27.40;13.13;;;;;;;;;;6291427;28;20052;-67
2023/09/28 08:55:42;;;;;;;25.27;13.63;;;;;;;;;;6292866;28;20055;-67
2023/09/28 08:58:43;;;;;;;25.55;13.63;;;;;;;;;;6290920;28;20053;-67
2023/09/28 09:01:46;;;;;;;24.67;13.27;;;;;;;;;;6290855;28;20040;-66
2023/09/28 09:04:46;;;;;;;23.33;12.60;;;;;;;;;;6292184;28;20456;-67
2023/09/28 09:07:49;;;;;;;24.40;13.00;;;;;;;;;;6292192;28;20048;-67
2023/09/28 09:10:51;;;;;;;22.63;12.43;;;;;;;;;;6291397;28;20047;-67
2023/09/28 09:13:55;;;;;;;22.10;12.00;;;;;;;;;;6291480;28;20526;-67
2023/09/28 09:16:56;;;;;;;21.63;11.20;;;;;;;;;;6292659;28;20045;-66
2023/09/28 09:19:59;;;;;;;23.63;12.20;;;;;;;;;;6291044;28;20209;-67
2023/09/28 09:23:11;;;;;;;21.58;13.25;;;;;;;;;;6290373;28;20062;-68
2023/09/28 09:26:17;;;;;;;22.65;12.43;;;;;;;;;;6291229;28;20701;-67
2023/09/28 09:29:19;;;;;;;25.48;13.60;;;;;;;;;;6291860;28;20491;-65
2023/09/28 09:32:23;;;;;;;30.60;13.30;;;;;;;;;;6292161;28;20423;-67
2023/09/28 09:35:25;;;;;;;21.33;11.32;;;;;;;;;;6290484;28;20055;-67
2023/09/28 09:38:29;;;;;;;19.63;12.10;;;;;;;;;;6291098;28;20055;-67
2023/09/28 09:41:31;;;;;;;21.42;11.63;;;;;;;;;;6291211;28;20410;-67
2023/09/28 09:44:31;;;;;;;25.07;12.83;;;;;;;;;;6289683;28;20052;-66
2023/09/28 09:47:32;;;;;;;26.80;11.33;;;;;;;;;;6290484;28;20071;-66
2023/09/28 09:50:35;;;;;;;21.90;11.03;;;;;;;;;;6287068;28;20044;-67
2023/09/28 09:53:42;;;;;;;21.85;11.95;;;;;;;;;;6290544;28;20051;-67
2023/09/28 09:56:46;;;;;;;26.05;12.27;;;;;;;;;;6290837;28;20143;-66
2023/09/28 09:59:47;;;;;;;24.42;12.27;;;;;;;;;;6290013;28;20055;-67
2023/09/28 10:02:51;;;;;;;28.80;11.27;;;;;;;;;;6291166;28;20052;-67
2023/09/28 10:05:52;;;;;;;19.75;11.15;;;;;;;;;;6289433;28;20722;-67
2023/09/28 10:08:53;;;;;;;18.48;10.65;;;;;;;;;;6291129;28;20040;-67
2023/09/28 10:11:55;;;;;;;21.65;11.30;;;;;;;;;;6290474;28;20545;-66
2023/09/28 10:15:00;;;;;;;22.40;11.20;;;;;;;;;;6289761;28;20515;-66
2023/09/28 10:18:01;;;;;;;21.50;11.13;;;;;;;;;;6290511;28;20507;-66
2023/09/28 10:21:02;;;;;;;19.85;10.85;;;;;;;;;;6290504;28;20032;-65
2023/09/28 10:24:31;;;;;;;22.75;11.07;;;;;;;;;;6289608;28;20484;-66
2023/09/28 10:27:36;;;;;;;22.90;10.75;;;;;;;;;;6287440;28;20052;-65
2023/09/28 10:30:37;;;;;;;23.73;11.57;;;;;;;;;;6289794;28;20054;-67
2023/09/28 10:34:04;;;;;;;23.47;10.93;;;;;;;;;;6288933;28;20059;-67
2023/09/28 10:37:10;;;;;;;21.02;11.10;;;;;;;;;;6283646;28;20062;-65
2023/09/28 10:40:11;;;;;;;25.77;11.25;;;;;;;;;;6286024;28;20048;-66
2023/09/28 10:43:26;;;;;;;24.02;11.85;;;;;;;;;;6290340;28;20097;-65
2023/09/28 10:46:29;;;;;;;19.52;11.32;;;;;;;;;;6290003;28;20060;-65
2023/09/28 10:49:30;;;;;;;25.30;12.45;;;;;;;;;;6287250;28;20047;-67
2023/09/28 10:52:30;;;;;;;22.23;10.97;;;;;;;;;;6289818;28;20045;-67
2023/09/28 10:55:31;;;;;;;25.37;11.10;;;;;;;;;;6288153;28;20126;-66
2023/09/28 10:58:35;;;;;;;19.15;9.88;;;;;;;;;;6288255;28;20856;-67
2023/09/28 11:01:42;;;;;;;18.73;10.05;;;;;;;;;;6288912;28;20044;-67
2023/09/28 11:04:42;;;;;;;26.50;11.25;;;;;;;;;;6287919;28;20064;-67
2023/09/28 11:07:43;;;;;;;19.57;11.00;;;;;;;;;;6289121;28;20040;-67
2023/09/28 11:10:44;;;;;;;18.30;10.23;;;;;;;;;;6288498;28;20052;-67
2023/09/28 11:13:44;;;;;;;27.35;11.18;;;;;;;;;;6288384;28;20045;-67
2023/09/28 11:16:49;;;;;;;20.77;10.87;;;;;;;;;;6287150;28;20051;-67
2023/09/28 11:19:50;;;;;;;20.67;10.68;;;;;;;;;;6289113;28;20045;-66
2023/09/28 11:22:54;;;;;;;18.45;9.98;;;;;;;;;;6287682;28;20408;-67
2023/09/28 11:25:56;;;;;;;18.60;9.90;;;;;;;;;;6289092;28;20089;-67
2023/09/28 11:28:58;;;;;;;20.90;10.53;;;;;;;;;;6287819;28;20044;-67
2023/09/28 11:31:59;;;;;;;20.13;10.35;;;;;;;;;;6288976;28;20487;-64
2023/09/28 11:34:59;;;;;;;17.80;10.70;;;;;;;;;;6290026;28;20045;-66
2023/09/28 11:38:03;;;;;;;18.93;10.50;;;;;;;;;;6289041;28;20055;-67
2023/09/28 11:41:06;;;;;;;25.63;11.45;;;;;;;;;;6287873;28;20131;-68
2023/09/28 11:44:07;;;;;;;25.30;11.20;;;;;;;;;;6288743;28;20537;-66
2023/09/28 11:47:07;;;;;;;23.23;11.68;;;;;;;;;;6288834;28;20037;-66
2023/09/28 11:50:08;;;;;;;21.53;10.93;;;;;;;;;;6284348;28;20475;-68
2023/09/28 11:53:09;;;;;;;22.03;11.03;;;;;;;;;;6289475;28;20327;-66
2023/09/28 11:56:10;;;;;;;25.08;10.43;;;;;;;;;;6288271;28;20067;-67
2023/09/28 11:59:15;;;;;;;21.80;10.77;;;;;;;;;;6287141;28;20434;-68
2023/09/28 12:02:17;;;;;;;30.15;12.27;;;;;;;;;;6286097;28;20541;-67
2023/09/28 12:05:18;;;;;;;39.28;12.20;;;;;;;;;;6287569;28;20648;-66
2023/09/28 12:08:19;;;;;;;25.10;11.07;;;;;;;;;;6287977;28;20098;-67
2023/09/28 12:11:19;;;;;;;24.53;11.50;;;;;;;;;;6286600;28;20301;-66
2023/09/28 12:14:20;;;;;;;24.67;12.53;;;;;;;;;;6288419;28;20124;-67
2023/09/28 12:17:20;;;;;;;27.93;11.50;;;;;;;;;;6287971;28;20060;-67
2023/09/28 12:20:21;;;;;;;24.93;12.37;;;;;;;;;;6287160;28;20059;-67
2023/09/28 12:23:22;;;;;;;22.10;12.10;;;;;;;;;;6286960;28;20041;-67
2023/09/28 12:26:23;;;;;;;25.73;12.60;;;;;;;;;;6287489;28;20470;-67
2023/09/28 12:29:23;;;;;;;27.37;12.70;;;;;;;;;;6287509;28;20048;-68
2023/09/28 12:32:24;;;;;;;26.40;12.53;;;;;;;;;;6286134;28;20529;-66
2023/09/28 12:35:25;;;;;;;28.87;12.67;;;;;;;;;;6287674;28;20036;-66
2023/09/28 12:38:25;;;;;;;32.15;13.10;;;;;;;;;;6287257;28;20044;-67
2023/09/28 12:41:26;;;;;;;31.37;13.60;;;;;;;;;;6284076;28;20052;-66
2023/09/28 12:44:28;;;;;;;34.00;13.93;;;;;;;;;;6287890;28;20037;-67
2023/09/28 12:47:28;;;;;;;23.67;12.98;;;;;;;;;;6287226;28;20407;-66
2023/09/28 12:50:30;;;;;;;33.80;13.75;;;;;;;;;;6285661;28;20037;-66
2023/09/28 12:53:33;;;;;;;;;;;;;;;;;;6287750;28;20090;-66
2023/09/28 12:56:33;;;;;;;28.30;13.15;;;;;;;;;;6287380;28;19924;-65
2023/09/28 12:59:34;;;;;;;29.80;13.83;;;;;;;;;;6286749;28;20523;-67
2023/09/28 13:02:35;;;;;;;25.30;13.93;;;;;;;;;;6287082;28;20135;-66
2023/09/28 13:05:39;;;;;;;29.37;13.70;;;;;;;;;;6287930;28;20041;-66
2023/09/28 13:08:40;;;;;;;28.27;14.32;;;;;;;;;;6286388;28;20066;-66
2023/09/28 13:11:42;;;;;;;27.50;13.97;;;;;;;;;;6285849;28;20053;-67
2023/09/28 13:14:43;;;;;;;28.70;14.02;;;;;;;;;;6287308;28;20426;-66
2023/09/28 13:17:44;;;;;;;30.00;14.90;;;;;;;;;;6287366;28;20041;-66
2023/09/28 13:20:45;;;;;;;;;;;;;;;;;;6286516;28;20503;-68
2023/09/28 13:23:45;;;;;;;31.70;14.00;;;;;;;;;;6287097;28;19927;-67
2023/09/28 13:26:47;;;;;;;29.02;15.38;;;;;;;;;;6287120;28;20140;-67
2023/09/28 13:29:48;;;;;;;27.73;14.38;;;;;;;;;;6286452;28;20484;-68
2023/09/28 13:32:52;;;;;;;42.47;15.07;;;;;;;;;;6284904;28;20503;-66
2023/09/28 13:35:52;;;;;;;34.25;15.70;;;;;;;;;;6285904;28;20499;-66
2023/09/28 13:38:54;;;;;;;36.77;15.33;;;;;;;;;;6291001;28;20109;-65
2023/09/28 13:41:57;;;;;;;;;;;;;;;;;;6290926;28;20127;-66
2023/09/28 13:44:59;;;;;;;27.88;13.45;;;;;;;;;;6282421;28;20288;-66
2023/09/28 13:48:02;;;;;;;31.13;15.05;;;;;;;;;;6288559;28;20059;-67
2023/09/28 13:51:03;;;;;;;30.60;14.43;;;;;;;;;;6290057;28;20044;-66
2023/09/28 13:54:03;;;;;;;28.17;14.27;;;;;;;;;;6292667;28;20055;-66
2023/09/28 13:57:07;;;;;;;29.67;14.82;;;;;;;;;;6289788;28;20036;-65
2023/09/28 14:00:13;;;;;;;30.35;14.85;;;;;;;;;;6290481;28;20063;-67
2023/09/28 14:03:15;;;;;;;27.70;14.68;;;;;;;;;;6292023;28;20052;-67
2023/09/28 14:06:15;;;;;;;32.65;14.77;;;;;;;;;;6289814;28;20052;-67
2023/09/28 14:09:24;;;;;;;34.90;14.63;;;;;;;;;;6289672;28;20044;-67
2023/09/28 14:12:25;;;;;;;33.05;14.82;;;;;;;;;;6288231;28;20102;-67
2023/09/28 14:15:26;;;;;;;;;;;;;;;;;;6291239;28;20040;-66
2023/09/28 14:18:26;;;;;;;28.93;14.73;;;;;;;;;;6289950;28;19931;-67
2023/09/28 14:21:27;;;;;;;33.03;14.37;;;;;;;;;;6291513;28;20429;-67
2023/09/28 14:24:29;;;;;;;28.10;14.10;;;;;;;;;;6290278;28;20420;-67
2023/09/28 14:27:30;;;;;;;28.65;15.60;;;;;;;;;;6290273;28;20062;-67
2023/09/28 14:30:30;;;;;;;28.65;14.77;;;;;;;;;;6288222;28;20053;-67
2023/09/28 14:33:31;;;;;;;43.83;15.67;;;;;;;;;;6289665;28;20510;-66
2023/09/28 14:36:32;;;;;;;35.20;15.00;;;;;;;;;;6291171;28;20043;-67
2023/09/28 14:39:33;;;;;;;32.22;13.43;;;;;;;;;;6289296;28;20094;-66
2023/09/28 14:42:34;;;;;;;24.80;12.63;;;;;;;;;;6288185;28;20045;-66
2023/09/28 14:45:35;;;;;;;31.95;14.57;;;;;;;;;;6283867;28;20098;-67
2023/09/28 14:48:35;;;;;;;32.00;13.63;;;;;;;;;;6290240;28;20521;-66
2023/09/28 14:51:37;;;;;;;26.47;13.37;;;;;;;;;;6287891;28;20048;-67
2023/09/28 14:54:38;;;;;;;31.65;14.20;;;;;;;;;;6288585;28;20072;-67
2023/09/28 14:57:39;;;;;;;35.33;15.02;;;;;;;;;;6291777;28;20159;-67
2023/09/28 15:00:39;;;;;;;34.07;15.73;;;;;;;;;;6286770;28;20182;-67
2023/09/28 15:03:41;;;;;;;36.00;16.17;;;;;;;;;;6286054;28;20055;-67
2023/09/28 15:06:41;;;;;;;35.20;15.38;;;;;;;;;;6283574;28;20053;-65
2023/09/28 15:09:42;;;;;;;33.57;16.13;;;;;;;;;;6282252;28;20037;-67
2023/09/28 15:12:43;;;;;;;33.50;16.77;;;;;;;;;;6273557;28;20324;-66
2023/09/28 15:15:43;;;;;;;37.33;16.43;;;;;;;;;;6277541;28;20529;-65
2023/09/28 15:18:44;;;;;;;46.83;17.70;;;;;;;;;;6283150;28;20464;-65
2023/09/28 15:21:44;;;;;;;30.30;16.08;;;;;;;;;;6286283;28;20048;-66
2023/09/28 15:24:45;;;;;;;34.83;16.57;;;;;;;;;;6276276;28;20053;-64
2023/09/28 15:27:46;;;;;;;30.87;15.87;;;;;;;;;;6287196;28;20080;-65
2023/09/28 15:30:56;;;;;;;34.80;15.27;;;;;;;;;;6286925;28;20308;-66
2023/09/28 15:33:56;;;;;;;42.25;16.98;;;;;;;;;;6274890;28;20044;-66
2023/09/28 15:36:57;;;;;;;35.50;16.40;;;;;;;;;;6285908;28;20075;-65
2023/09/28 15:39:57;;;;;;;31.95;16.00;;;;;;;;;;6287382;28;20079;-65
2023/09/28 15:42:59;;;;;;;32.30;15.37;;;;;;;;;;6280200;28;20106;-66
2023/09/28 15:45:59;;;;;;;31.15;15.93;;;;;;;;;;6285223;28;20058;-65
2023/09/28 15:49:04;;;;;;;34.97;15.67;;;;;;;;;;6280533;28;21010;-66
2023/09/28 15:52:07;;;;;;;34.70;16.55;;;;;;;;;;6284258;28;20047;-64
2023/09/28 15:55:08;;;;;;;32.92;15.60;;;;;;;;;;6279202;28;20483;-63
2023/09/28 15:58:08;;;;;;;29.60;15.35;;;;;;;;;;6284942;28;20053;-64
2023/09/28 16:01:12;;;;;;;34.77;15.90;;;;;;;;;;6284478;28;20495;-65
2023/09/28 16:04:13;;;;;;;28.77;14.73;;;;;;;;;;6285579;28;20471;-65
2023/09/28 16:07:13;;;;;;;42.47;17.27;;;;;;;;;;6290684;28;20040;-64
2023/09/28 16:10:14;;;;;;;38.07;17.77;;;;;;;;;;6287371;28;20052;-63
2023/09/28 16:13:15;;;;;;;36.93;16.60;;;;;;;;;;6291211;28;20060;-64
2023/09/28 16:16:15;;;;;;;38.13;17.17;;;;;;;;;;6281843;28;20044;-64
2023/09/28 16:19:16;;;;;;;36.03;16.87;;;;;;;;;;6288478;28;20056;-64
2023/09/28 16:22:18;;;;;;;39.93;17.77;;;;;;;;;;6292451;28;20550;-64
2023/09/28 16:25:18;;;;;;;;;;;;;;;;;;6289071;28;20063;-62
2023/09/28 16:28:19;;;;;;;33.47;17.05;;;;;;;;;;6290595;28;21244;-63
2023/09/28 16:31:19;;;;;;;42.03;17.70;;;;;;;;;;6287817;28;20542;-64
2023/09/28 16:34:20;;;;;;;45.80;19.73;;;;;;;;;;6286226;28;20449;-62
2023/09/28 16:37:21;;;;;;;43.47;19.43;;;;;;;;;;6284070;28;20066;-64
2023/09/28 16:40:22;;;;;;;41.47;18.70;;;;;;;;;;6269807;28;20056;-61
2023/09/28 16:43:22;;;;;;;41.33;18.97;;;;;;;;;;6284891;28;20052;-63
2023/09/28 16:46:24;;;;;;;42.67;18.33;;;;;;;;;;6285538;28;20053;-63
2023/09/28 16:49:24;;;;;;;52.03;21.88;;;;;;;;;;6289813;28;20059;-63
2023/09/28 16:52:25;;;;;;;46.50;20.53;;;;;;;;;;6266169;28;20044;-64
2023/09/28 16:55:25;;;;;;;45.57;21.20;;;;;;;;;;6282651;28;20056;-63
2023/09/28 16:58:26;;;;;;;42.90;19.90;;;;;;;;;;6288171;28;20053;-63
2023/09/28 17:01:26;;;;;;;48.57;21.50;;;;;;;;;;6290747;28;20041;-63
2023/09/28 17:04:27;;;;;;;45.17;20.03;;;;;;;;;;6284758;28;20075;-66
2023/09/28 17:07:29;;;;;;;43.93;20.87;;;;;;;;;;6294054;28;20102;-65
2023/09/28 17:10:30;;;;;;;61.90;23.27;;;;;;;;;;6291737;28;20060;-61
2023/09/28 17:13:30;;;;;;;50.97;22.27;;;;;;;;;;6289028;28;20060;-64
2023/09/28 17:16:31;;;;;;;59.30;22.67;;;;;;;;;;6271232;28;20396;-64
2023/09/28 17:19:32;;;;;;;49.57;22.63;;;;;;;;;;6296919;28;20052;-64
2023/09/28 17:22:33;;;;;;;61.20;23.07;;;;;;;;;;6296430;28;20537;-64
2023/09/28 17:25:33;;;;;;;60.80;23.33;;;;;;;;;;6290304;28;20043;-63
2023/09/28 17:28:34;;;;;;;64.97;24.77;;;;;;;;;;6275169;28;20052;-62
2023/09/28 17:31:35;;;;;;;56.60;24.37;;;;;;;;;;6296107;28;20059;-64
2023/09/28 17:34:35;;;;;;;57.63;24.87;;;;;;;;;;6274293;28;20064;-63
2023/09/28 17:37:36;;;;;;;62.70;25.23;;;;;;;;;;6291079;28;20091;-63
2023/09/28 17:40:37;;;;;;;57.00;25.33;;;;;;;;;;6275764;28;20158;-66